Time;durP1;ratioP1;P1;durP2;ratioP2;P2;SDS_P1;SDS_P2;PMS_P1;PMS_P2;Temp;Humidity;BMP_temperature;BMP_pressure;BME280_temperature;BME280_humidity;BME280_pressure;Samples;Min_cycle;Max_cycle;Signal;HPM_P1;HPM_P2
2023/02/06 00:01:44;;;;;;;15.70;11.87;;;-2.40;99.90;;;-2.85;87.57;100014.44;5068698;28;20812;-72
2023/02/06 00:04:12;;;;;;;15.77;12.60;;;-2.40;99.90;;;-2.83;87.42;100038.16;5066989;28;20941;-73
2023/02/06 00:06:39;;;;;;;17.03;13.27;;;-2.40;99.90;;;-2.89;87.37;100028.72;5066968;28;20468;-71
2023/02/06 00:09:10;;;;;;;16.90;12.50;;;-2.40;99.90;;;-2.97;87.38;100023.84;5083076;28;20487;-73
2023/02/06 00:11:38;;;;;;;15.10;11.70;;;-2.30;99.90;;;-2.87;86.85;100038.31;5067398;28;20451;-72
2023/02/06 00:14:06;;;;;;;13.27;11.20;;;-2.30;99.90;;;-2.85;86.95;100040.88;5075118;28;20581;-73
2023/02/06 00:16:35;;;;;;;17.13;12.37;;;-2.30;99.50;;;-2.89;86.89;100037.53;5068562;28;20452;-73
2023/02/06 00:19:02;;;;;;;15.13;11.23;;;-2.30;98.80;;;-2.90;86.91;100025.25;5077156;28;22600;-72
2023/02/06 00:21:30;;;;;;;14.13;11.10;;;-2.30;98.10;;;-2.90;87.65;100043.78;5086926;28;21038;-72
2023/02/06 00:24:00;;;;;;;16.60;11.67;;;-2.40;98.60;;;-2.96;87.12;100025.56;5082943;28;20452;-73
2023/02/06 00:26:29;;;;;;;21.70;12.10;;;-2.30;99.00;;;-2.89;87.10;100047.25;5070718;28;20468;-73
2023/02/06 00:28:58;;;;;;;19.10;12.43;;;-2.20;98.50;;;-2.88;87.18;100044.53;5071963;28;20941;-72
2023/02/06 00:31:26;;;;;;;18.50;11.77;;;-2.30;97.60;;;-2.82;87.04;100039.84;5069610;28;21226;-72
2023/02/06 00:33:53;;;;;;;12.40;10.80;;;-2.20;97.30;;;-2.87;87.09;100046.25;5073284;28;20472;-71
2023/02/06 00:36:20;;;;;;;13.23;10.70;;;-2.20;97.00;;;-2.83;87.11;100048.72;5083514;28;20455;-72
2023/02/06 00:38:47;;;;;;;15.27;11.60;;;-2.20;96.60;;;-2.93;86.60;100043.06;5076290;28;20460;-70
2023/02/06 00:41:14;;;;;;;17.27;11.20;;;-2.30;96.00;;;-3.04;86.97;100046.28;5077281;28;20445;-72
2023/02/06 00:43:42;;;;;;;14.63;11.30;;;-2.40;96.20;;;-3.06;87.21;100045.50;5082344;28;20453;-71
2023/02/06 00:46:10;;;;;;;12.20;10.90;;;-2.50;97.30;;;-3.09;87.36;100035.06;5094639;27;21024;-72
2023/02/06 00:48:37;;;;;;;15.17;11.57;;;-2.60;97.70;;;-3.10;87.74;100049.25;5079069;28;20461;-71
2023/02/06 00:51:06;;;;;;;17.40;12.53;;;-2.60;99.30;;;-3.06;86.79;100048.13;5081848;28;20452;-71
2023/02/06 00:53:33;;;;;;;19.00;11.80;;;-2.60;99.40;;;-3.05;87.37;100042.75;5080362;28;20532;-72
2023/02/06 00:56:00;;;;;;;18.77;12.93;;;-2.50;99.70;;;-3.05;87.19;100040.09;5080269;28;20530;-72
2023/02/06 00:58:28;;;;;;;14.40;11.77;;;-2.50;98.80;;;-3.08;86.98;100044.72;5082019;28;20452;-72
2023/02/06 01:00:55;;;;;;;16.63;12.90;;;-2.50;97.70;;;-3.18;86.97;100031.97;5105309;28;20464;-73
2023/02/06 01:03:24;;;;;;;16.33;11.77;;;-2.60;97.10;;;-3.22;87.13;100034.81;5102151;28;20471;-71
2023/02/06 01:05:51;;;;;;;14.90;11.70;;;-2.70;97.70;;;-3.24;87.47;100013.78;5114974;27;20458;-73
2023/02/06 01:08:18;;;;;;;18.10;12.50;;;-2.60;98.70;;;-3.27;87.35;100021.84;5090350;28;20526;-75
2023/02/06 01:10:45;;;;;;;14.23;11.77;;;-2.70;97.60;;;-3.31;87.51;100017.63;5081523;28;20520;-74
2023/02/06 01:13:12;;;;;;;14.80;12.07;;;-2.70;97.90;;;-3.40;87.32;100029.53;5080348;28;20691;-74
2023/02/06 01:15:40;;;;;;;14.13;12.37;;;-2.90;97.50;;;-3.44;86.95;100012.97;5077117;28;20505;-72
2023/02/06 01:18:07;;;;;;;14.50;12.50;;;-2.90;98.70;;;-3.37;87.53;100012.69;5069709;28;20465;-73
2023/02/06 01:20:35;;;;;;;17.67;13.20;;;-2.90;99.30;;;-3.48;87.27;99995.56;5067202;28;22423;-74
2023/02/06 01:23:03;;;;;;;16.30;13.10;;;-2.80;99.20;;;-3.39;87.04;100014.53;5071459;28;20533;-73
2023/02/06 01:25:30;;;;;;;15.20;11.57;;;-2.80;98.80;;;-3.43;87.25;100011.19;5071133;28;20481;-71
2023/02/06 01:27:57;;;;;;;18.30;12.90;;;-2.80;97.60;;;-3.54;87.11;100000.28;5068729;28;20446;-72
2023/02/06 01:30:24;;;;;;;16.83;12.80;;;-2.80;97.50;;;-3.48;87.54;100006.13;5064762;28;20460;-74
2023/02/06 01:32:52;;;;;;;14.03;12.53;;;-2.80;97.40;;;-3.49;88.10;100014.13;5072814;28;20499;-71
2023/02/06 01:35:19;;;;;;;14.47;11.67;;;-2.80;97.70;;;-3.59;88.11;100027.81;5075742;28;20475;-75
2023/02/06 01:37:47;;;;;;;14.43;11.50;;;-3.00;97.30;;;-3.68;88.52;100024.78;5088236;28;20456;-74
2023/02/06 01:40:17;;;;;;;16.40;11.63;;;-3.10;98.10;;;-3.97;90.10;100024.38;5087557;28;20500;-76
2023/02/06 01:42:44;;;;;;;15.83;12.27;;;-3.20;98.90;;;-3.90;89.66;100049.56;5080443;28;20531;-73
2023/02/06 01:45:42;;;;;;;19.07;12.87;;;-3.30;99.90;;;-3.72;89.41;100046.03;5083350;28;20812;-74
2023/02/06 01:48:14;;;;;;;12.90;11.23;;;-3.30;99.90;;;-3.74;89.08;100050.53;5077537;28;20451;-71
2023/02/06 01:50:47;;;;;;;17.40;12.43;;;-3.10;99.90;;;-3.72;88.61;100056.59;5079825;28;20448;-71
2023/02/06 01:53:18;;;;;;;18.67;12.80;;;-3.10;99.90;;;-3.76;88.50;100051.56;5096432;28;20486;-71
2023/02/06 01:55:47;;;;;;;13.73;11.90;;;-3.10;99.90;;;-3.84;87.72;100046.66;5091088;28;20459;-72
2023/02/06 01:58:18;;;;;;;16.57;11.83;;;-3.20;99.90;;;-3.94;88.70;100034.81;5096173;28;20465;-71
2023/02/06 02:00:46;;;;;;;15.00;11.50;;;-3.30;99.90;;;-3.97;88.59;100046.34;5083169;28;20606;-74
2023/02/06 02:03:13;;;;;;;13.10;11.67;;;-3.40;99.90;;;-4.07;88.83;100035.38;5079245;28;20455;-73
2023/02/06 02:05:43;;;;;;;17.27;12.53;;;-3.50;99.90;;;-3.99;88.29;100046.44;5069140;28;20462;-73
2023/02/06 02:08:17;;;;;;;13.60;11.17;;;-3.40;99.90;;;-4.16;89.72;100046.38;5070223;28;20454;-72
2023/02/06 02:10:45;;;;;;;15.67;10.60;;;-3.50;99.90;;;-4.26;89.76;100045.94;5078382;28;20441;-72
2023/02/06 02:13:12;;;;;;;14.70;11.70;;;-3.70;99.90;;;-4.41;90.09;100039.59;5071155;28;20469;-72
2023/02/06 02:15:46;;;;;;;16.73;11.10;;;-3.90;99.90;;;-4.39;89.69;100018.41;5080550;28;20505;-73
2023/02/06 02:18:31;;;;;;;15.20;12.10;;;-3.90;99.90;;;-4.47;90.03;100042.53;5073752;28;20468;-72
2023/02/06 02:21:40;;;;;;;12.40;11.10;;;-3.90;99.90;;;-4.46;90.35;100039.78;5076777;28;20493;-72
2023/02/06 02:24:17;;;;;;;14.50;9.90;;;-4.00;99.90;;;-4.50;90.20;100047.91;5070923;28;20447;-72
2023/02/06 02:27:26;;;;;;;13.80;10.83;;;-4.00;99.90;;;-4.19;88.93;100052.66;5076743;28;20987;-71
2023/02/06 02:30:47;;;;;;;16.03;11.10;;;-3.80;99.90;;;-4.25;88.62;100030.97;5070238;28;20458;-73
2023/02/06 02:34:02;;;;;;;12.83;9.83;;;-3.80;99.90;;;-4.52;88.61;100004.91;5069306;28;21055;-72
2023/02/06 02:36:37;;;;;;;14.70;11.37;;;-3.80;99.90;;;-4.30;88.63;100017.97;5079814;28;20975;-72
2023/02/06 02:39:14;;;;;;;14.53;10.87;;;-3.80;99.90;;;-4.16;87.84;100020.00;5076909;28;20522;-72
2023/02/06 02:41:49;;;;;;;13.67;11.50;;;-3.70;99.90;;;-4.13;88.15;100011.91;5074744;28;20450;-73
2023/02/06 02:44:26;;;;;;;17.20;12.07;;;-3.60;99.90;;;-4.07;88.05;100019.53;5080153;28;20492;-74
2023/02/06 02:46:57;;;;;;;13.80;11.20;;;-3.50;99.90;;;-4.21;88.32;100016.69;5075827;28;20465;-71
2023/02/06 02:49:29;;;;;;;16.00;12.00;;;-3.60;99.90;;;-4.37;88.64;100012.13;5081206;28;20527;-73
2023/02/06 02:51:58;;;;;;;13.63;11.73;;;-3.70;99.80;;;-4.46;89.83;100002.84;5093699;28;20491;-72
2023/02/06 02:54:27;;;;;;;14.60;11.20;;;-3.80;99.70;;;-4.42;89.46;100008.84;5077003;28;20483;-73
2023/02/06 02:57:01;;;;;;;14.97;11.20;;;-3.90;99.90;;;-4.29;88.93;100015.28;5077008;28;20458;-73
2023/02/06 02:59:34;;;;;;;12.80;10.37;;;-3.80;99.90;;;-4.32;88.59;100004.88;5086978;28;20620;-73
2023/02/06 03:02:07;;;;;;;12.87;10.67;;;-3.70;99.90;;;-4.81;88.25;99934.09;5084926;28;20940;-73
2023/02/06 03:04:41;;;;;;;16.63;12.87;;;-3.70;99.90;;;-5.22;87.63;99860.38;5079570;28;20959;-72
2023/02/06 03:07:21;;;;;;;14.60;11.87;;;-3.60;99.90;;;-4.62;88.46;99959.63;5098811;27;20542;-72
2023/02/06 03:10:00;;;;;;;16.10;10.70;;;-3.60;99.90;;;-4.43;88.27;99999.22;5082350;28;21161;-73
2023/02/06 03:12:35;;;;;;;13.00;11.17;;;-3.50;99.80;;;-4.39;88.99;100021.91;5087550;28;20521;-74
2023/02/06 03:15:09;;;;;;;12.80;11.00;;;-3.50;98.70;;;-4.24;88.50;100032.69;5102540;27;20503;-71
2023/02/06 03:17:42;;;;;;;13.90;10.80;;;-3.50;98.70;;;-4.13;88.10;100038.31;5089549;28;20480;-74
2023/02/06 03:20:11;;;;;;;14.77;11.17;;;-3.50;98.90;;;-4.64;88.06;99946.50;5080794;28;20864;-73
2023/02/06 03:22:42;;;;;;;14.00;10.70;;;-3.50;98.00;;;-4.10;87.67;100022.31;5080171;28;20450;-73
2023/02/06 03:25:14;;;;;;;15.10;11.40;;;-3.40;98.30;;;-4.15;88.20;100016.41;5072769;28;20480;-75
2023/02/06 03:27:43;;;;;;;12.50;10.17;;;-3.50;98.10;;;-4.46;87.67;99970.34;5073084;28;20444;-74
2023/02/06 03:30:14;;;;;;;12.97;9.87;;;-3.50;97.90;;;-4.34;87.22;99980.28;5075316;28;20453;-75
2023/02/06 03:32:46;;;;;;;14.40;10.80;;;-3.50;98.00;;;-4.24;87.82;99990.44;5072404;28;20471;-72
2023/02/06 03:35:18;;;;;;;13.70;10.50;;;-3.40;97.90;;;-4.31;88.83;100013.63;5083719;28;20487;-75
2023/02/06 03:37:48;;;;;;;13.83;9.90;;;-3.50;98.00;;;-4.49;89.10;99965.19;5074202;28;20559;-75
2023/02/06 03:40:17;;;;;;;13.07;10.40;;;-3.50;99.00;;;-4.19;88.40;99994.56;5079009;28;20459;-72
2023/02/06 03:42:50;;;;;;;12.90;10.00;;;-3.50;98.50;;;-4.19;88.12;100004.25;5073140;28;21057;-74
2023/02/06 03:45:22;;;;;;;13.50;11.00;;;-3.50;98.80;;;-4.22;87.69;100009.69;5078553;28;20880;-75
2023/02/06 03:47:52;;;;;;;14.27;9.73;;;-3.50;98.10;;;-4.73;87.68;99931.09;5075253;28;20495;-75
2023/02/06 03:50:22;;;;;;;11.77;8.70;;;-3.50;97.80;;;-4.30;88.06;100013.56;5075542;28;20771;-75
2023/02/06 03:52:53;;;;;;;11.93;9.13;;;-3.50;97.50;;;-4.22;87.88;100026.41;5074038;28;20479;-72
2023/02/06 03:55:23;;;;;;;13.50;10.30;;;-3.50;97.20;;;-4.36;88.13;100003.28;5074874;28;20475;-76
2023/02/06 03:57:54;;;;;;;12.73;10.00;;;-3.50;97.30;;;-4.40;88.57;100020.19;5073642;28;20476;-75
2023/02/06 04:00:22;;;;;;;12.27;9.53;;;-3.40;98.60;;;-4.11;89.06;100044.38;5085517;28;20510;-75
2023/02/06 04:02:51;;;;;;;14.80;10.50;;;-3.40;99.60;;;-4.48;88.58;99972.16;5086800;28;20572;-74
2023/02/06 04:05:19;;;;;;;13.80;10.60;;;-3.30;99.90;;;-3.96;88.44;100048.06;5102924;27;20446;-74
2023/02/06 04:07:51;;;;;;;14.73;10.87;;;-3.20;99.90;;;-3.87;87.88;100058.22;5091116;28;20547;-74
2023/02/06 04:10:20;;;;;;;14.17;10.70;;;-3.20;99.60;;;-3.84;87.83;100055.41;5087309;28;20474;-76
2023/02/06 04:12:47;;;;;;;13.90;10.63;;;-3.10;97.90;;;-3.71;87.58;100047.78;5099553;27;20485;-73
2023/02/06 04:15:14;;;;;;;15.60;10.90;;;-3.10;97.70;;;-3.76;87.58;100033.91;5073251;28;20470;-75
2023/02/06 04:17:41;;;;;;;12.80;10.47;;;-3.00;97.60;;;-3.82;88.07;100007.81;5075625;28;20455;-73
2023/02/06 04:20:10;;;;;;;13.20;9.87;;;-3.00;98.00;;;-3.60;87.70;100030.53;5074877;28;20511;-72
2023/02/06 04:22:39;;;;;;;15.70;10.77;;;-3.00;98.30;;;-3.59;87.84;100034.88;5092198;28;21559;-72
2023/02/06 04:25:07;;;;;;;14.50;10.17;;;-2.90;97.80;;;-3.56;86.87;100038.22;5082724;28;20471;-72
2023/02/06 04:27:36;;;;;;;14.00;10.13;;;-2.80;97.40;;;-3.69;87.33;100047.69;5083079;28;20455;-75
2023/02/06 04:30:06;;;;;;;11.87;9.80;;;-2.90;96.00;;;-3.47;87.60;100052.78;5072004;28;20512;-72
2023/02/06 04:32:33;;;;;;;12.37;9.87;;;-2.80;97.30;;;-3.54;87.27;100022.31;5086581;28;21084;-75
2023/02/06 04:35:00;;;;;;;14.13;10.07;;;-2.80;97.00;;;-3.28;86.72;100050.06;5072902;28;20540;-76
2023/02/06 04:37:27;;;;;;;15.10;11.60;;;-2.70;96.90;;;-3.22;85.83;100048.03;5074218;28;20476;-73
2023/02/06 04:39:55;;;;;;;11.93;10.70;;;-2.60;94.90;;;-3.36;85.84;100040.81;5082696;28;20904;-73
2023/02/06 04:42:22;;;;;;;12.87;10.13;;;-2.60;93.90;;;-3.23;86.19;100036.63;5093026;28;22542;-75
2023/02/06 04:44:50;;;;;;;11.03;9.70;;;-2.60;94.70;;;-3.30;85.87;100045.78;5097272;28;20472;-69
2023/02/06 04:47:18;;;;;;;10.10;9.10;;;-2.70;94.10;;;-3.36;86.46;100030.25;5097093;28;20455;-71
2023/02/06 04:49:45;;;;;;;13.57;10.77;;;-2.70;94.00;;;-3.48;86.16;100032.56;5101935;28;20442;-71
2023/02/06 04:52:12;;;;;;;15.23;10.87;;;-2.80;94.60;;;-3.34;86.44;100033.66;5098586;28;21773;-71
2023/02/06 04:54:39;;;;;;;15.77;10.80;;;-2.70;95.40;;;-3.28;85.61;100038.63;5093371;28;20694;-69
2023/02/06 04:57:07;;;;;;;13.47;9.63;;;-2.60;94.50;;;-3.46;86.20;100032.50;5082081;28;20459;-72
2023/02/06 04:59:34;;;;;;;11.13;9.93;;;-2.70;93.30;;;-3.51;86.71;100016.00;5072548;28;20452;-74
2023/02/06 05:02:02;;;;;;;10.87;8.70;;;-2.70;93.70;;;-3.20;86.98;100025.91;5072094;28;20541;-73
2023/02/06 05:04:30;;;;;;;14.47;10.37;;;-2.70;95.50;;;-3.03;85.96;100016.22;5067702;28;20475;-73
2023/02/06 05:06:57;;;;;;;12.37;10.30;;;-2.50;95.70;;;-3.00;85.47;100016.06;5075676;28;20470;-75
2023/02/06 05:09:25;;;;;;;12.03;10.37;;;-2.40;94.40;;;-3.80;85.22;99894.97;5077996;28;20510;-75
2023/02/06 05:11:52;;;;;;;11.90;10.37;;;-2.40;94.00;;;-3.03;85.24;100027.69;5074121;28;20465;-72
2023/02/06 05:14:19;;;;;;;13.70;10.20;;;-2.40;94.00;;;-2.81;84.08;100023.03;5073983;28;20492;-73
2023/02/06 05:16:46;;;;;;;15.03;9.30;;;-2.30;93.10;;;-2.95;84.03;100019.34;5070714;28;20460;-72
2023/02/06 05:19:15;;;;;;;11.63;10.10;;;-2.30;92.20;;;-3.01;84.09;100024.94;5075495;28;20522;-73
2023/02/06 05:21:42;;;;;;;11.27;10.00;;;-2.40;92.10;;;-3.01;84.33;99995.84;5079120;28;20446;-76
2023/02/06 05:24:09;;;;;;;13.77;10.80;;;-2.30;92.50;;;-2.95;84.76;100006.13;5074319;28;20456;-70
2023/02/06 05:26:36;;;;;;;11.13;9.93;;;-2.30;92.60;;;-3.05;84.11;100018.94;5070817;28;20454;-73
2023/02/06 05:29:03;;;;;;;14.80;11.20;;;-2.40;91.80;;;-3.00;84.76;100016.94;5077153;28;20554;-73
2023/02/06 05:31:31;;;;;;;14.80;10.70;;;-2.50;92.40;;;-2.92;85.39;100005.97;5081138;28;20541;-71
2023/02/06 05:33:58;;;;;;;12.80;10.53;;;-2.40;93.90;;;-2.77;85.43;99992.84;5088091;28;20509;-71
2023/02/06 05:36:28;;;;;;;13.97;10.87;;;-2.30;94.70;;;-2.74;84.41;99996.16;5079422;28;20468;-73
2023/02/06 05:38:57;;;;;;;13.83;10.50;;;-2.20;93.90;;;-2.88;84.39;99988.97;5073343;28;20523;-73
2023/02/06 05:41:24;;;;;;;13.17;10.20;;;-2.20;93.30;;;-2.57;83.92;100018.28;5083089;27;20450;-74
2023/02/06 05:43:51;;;;;;;14.30;10.80;;;-2.00;92.60;;;-2.66;84.80;100022.22;5076114;28;20463;-72
2023/02/06 05:46:18;;;;;;;11.83;10.30;;;-2.00;91.80;;;-2.71;83.86;100038.38;5066820;28;20463;-73
2023/02/06 05:48:45;;;;;;;11.83;10.40;;;-2.20;91.50;;;-2.68;84.58;100047.94;5076559;28;20956;-74
2023/02/06 05:51:14;;;;;;;12.43;9.93;;;-2.10;92.90;;;-2.55;83.90;100048.16;5076071;28;20455;-75
2023/02/06 05:53:43;;;;;;;12.53;10.30;;;-2.00;92.40;;;-2.54;83.53;100030.47;5078848;28;20539;-73
2023/02/06 05:56:10;;;;;;;12.90;11.17;;;-1.90;91.60;;;-2.68;83.83;100029.41;5077335;28;21001;-75
2023/02/06 05:58:37;;;;;;;11.80;10.60;;;-2.00;91.30;;;-2.61;83.95;100033.44;5075497;28;20456;-71
2023/02/06 06:01:05;;;;;;;13.40;10.23;;;-2.10;91.70;;;-2.45;84.29;100038.75;5077332;28;20453;-73
2023/02/06 06:03:32;;;;;;;12.97;10.87;;;-2.00;92.60;;;-2.29;83.28;100037.94;5078385;28;20471;-71
2023/02/06 06:06:00;;;;;;;12.47;10.10;;;-1.80;92.00;;;-2.45;82.71;100043.22;5074567;28;20909;-72
2023/02/06 06:08:27;;;;;;;11.90;10.40;;;-1.80;90.60;;;-2.44;84.08;100034.34;5081596;28;20455;-74
2023/02/06 06:10:56;;;;;;;12.33;10.63;;;-1.80;91.10;;;-2.57;83.95;100037.63;5068258;28;20554;-72
2023/02/06 06:13:23;;;;;;;13.93;11.00;;;-1.80;90.80;;;-2.26;83.39;100047.50;5067983;28;20465;-75
2023/02/06 06:15:52;;;;;;;13.73;10.93;;;-1.80;90.80;;;-2.30;82.73;100042.38;5068268;28;20492;-74
2023/02/06 06:18:20;;;;;;;14.30;10.57;;;-1.80;91.00;;;-2.40;83.59;100046.47;5081112;28;20454;-73
2023/02/06 06:20:48;;;;;;;11.83;10.37;;;-1.70;91.50;;;-2.14;83.85;100033.59;5070358;28;20454;-72
2023/02/06 06:23:15;;;;;;;13.80;11.10;;;-1.60;91.80;;;-2.10;82.19;100036.94;5064462;28;20462;-72
2023/02/06 06:25:43;;;;;;;14.47;10.57;;;-1.60;90.30;;;-2.04;82.74;100026.88;5074459;28;20506;-74
2023/02/06 06:28:11;;;;;;;13.63;11.57;;;-1.60;91.10;;;-2.25;83.19;100022.75;5074432;28;20816;-72
2023/02/06 06:30:39;;;;;;;14.53;10.90;;;-1.60;90.70;;;-1.91;83.31;100019.09;5074751;28;22606;-72
2023/02/06 06:33:06;;;;;;;14.30;10.87;;;-1.40;91.40;;;-1.78;81.58;100031.66;5079478;28;20453;-74
2023/02/06 06:35:34;;;;;;;17.67;10.57;;;-1.20;90.20;;;-1.65;83.81;100002.63;5074750;28;21046;-76
2023/02/06 06:38:01;;;;;;;12.47;10.47;;;-1.10;91.30;;;-1.56;82.33;100020.66;5097164;28;20476;-78
2023/02/06 06:40:29;;;;;;;12.27;11.00;;;-0.90;90.50;;;-1.43;80.57;100019.03;5077230;28;20877;-81
2023/02/06 06:42:56;;;;;;;13.20;10.77;;;-0.90;87.60;;;-1.68;80.80;100016.06;5087125;28;20452;-76
2023/02/06 06:45:24;;;;;;;12.97;10.67;;;-1.00;86.20;;;-1.88;80.63;100005.66;5070446;28;20764;-80
2023/02/06 06:47:52;;;;;;;15.50;11.10;;;-1.20;85.30;;;-1.81;81.05;100010.63;5076030;28;20885;-79
2023/02/06 06:50:19;;;;;;;12.50;10.97;;;-1.20;86.30;;;-1.91;81.47;100010.25;5078376;28;20451;-79
2023/02/06 06:52:46;;;;;;;12.23;10.53;;;-1.30;87.40;;;-1.98;81.51;99966.53;5080099;28;20445;-77
2023/02/06 06:55:14;;;;;;;15.80;10.53;;;-1.10;88.90;;;-1.59;80.74;100026.16;5075758;28;20542;-80
2023/02/06 06:57:41;;;;;;;14.07;10.87;;;-1.10;87.00;;;-1.49;80.36;100019.34;5070056;28;20747;-79
2023/02/06 07:00:10;;;;;;;12.27;11.07;;;-1.00;86.60;;;-1.49;79.25;100011.41;5078940;28;20466;-76
2023/02/06 07:02:40;;;;;;;15.83;12.70;;;-0.90;85.00;;;-1.81;80.27;100008.81;5076106;28;20484;-76
2023/02/06 07:05:07;;;;;;;15.10;12.30;;;-1.10;84.60;;;-1.70;80.00;100013.50;5090708;28;20472;-76
2023/02/06 07:07:34;;;;;;;18.40;14.10;;;-1.00;84.90;;;-1.86;80.48;100021.47;5068098;28;20452;-77
2023/02/06 07:10:01;;;;;;;13.40;11.67;;;-1.10;84.40;;;-1.97;80.03;100021.22;5082757;28;20456;-74
2023/02/06 07:12:29;;;;;;;14.70;11.80;;;-1.10;83.60;;;-1.65;81.29;100027.34;5079246;28;20446;-75
2023/02/06 07:14:56;;;;;;;15.70;11.40;;;-1.10;86.90;;;-1.48;79.53;100018.41;5071743;28;20475;-76
2023/02/06 07:17:23;;;;;;;15.97;12.50;;;-1.00;85.30;;;-1.43;78.45;100016.38;5071774;28;20861;-80
2023/02/06 07:19:52;;;;;;;14.23;11.70;;;-0.90;84.70;;;-1.54;79.82;100024.09;5062550;28;20819;-74
2023/02/06 07:22:20;;;;;;;15.33;10.50;;;-1.00;84.70;;;-1.61;80.22;100022.72;5061696;28;20453;-77
2023/02/06 07:24:47;;;;;;;14.43;11.80;;;-1.00;85.20;;;-1.72;80.69;100021.56;5064454;28;20527;-73
2023/02/06 07:27:15;;;;;;;16.07;11.80;;;-1.10;86.00;;;-1.52;80.21;100032.81;5083538;28;20484;-72
2023/02/06 07:29:43;;;;;;;15.53;12.43;;;-1.10;87.10;;;-1.61;79.98;100009.47;5081038;28;20458;-74
2023/02/06 07:32:11;;;;;;;16.67;12.77;;;-1.10;85.80;;;-1.48;80.30;100018.41;5088003;28;20453;-72
2023/02/06 07:34:39;;;;;;;14.47;11.73;;;-1.00;86.90;;;-1.51;79.23;100018.59;5081573;28;20818;-74
2023/02/06 07:37:07;;;;;;;16.30;12.60;;;-1.00;84.90;;;-1.53;79.72;100015.19;5069598;28;20524;-75
2023/02/06 07:39:34;;;;;;;22.23;12.10;;;-1.00;85.20;;;-1.38;78.77;100012.59;5066746;28;20460;-76
2023/02/06 07:42:01;;;;;;;13.87;11.50;;;-1.00;85.40;;;-1.56;79.38;99996.81;5088175;28;20454;-76
2023/02/06 07:44:29;;;;;;;16.73;13.10;;;-1.00;85.30;;;-1.65;79.85;100000.84;5070260;28;21318;-78
2023/02/06 07:46:57;;;;;;;16.63;12.53;;;-1.00;84.70;;;-1.64;80.19;99999.03;5070891;28;21050;-78
2023/02/06 07:49:24;;;;;;;13.10;11.80;;;-1.00;85.50;;;-1.67;79.72;100004.53;5077920;28;20872;-79
2023/02/06 07:51:52;;;;;;;18.00;13.40;;;-1.10;84.90;;;-1.62;80.19;100002.44;5083888;28;20539;-77
2023/02/06 07:54:21;;;;;;;16.03;12.50;;;-1.10;85.90;;;-1.62;79.57;100026.31;5080704;28;20558;-80
2023/02/06 07:56:48;;;;;;;17.67;12.70;;;-1.10;84.70;;;-1.57;79.48;100014.50;5081089;28;20454;-80
2023/02/06 07:59:16;;;;;;;15.90;12.53;;;-1.10;85.30;;;-1.55;79.90;100032.97;5078911;28;20599;-80
2023/02/06 08:01:43;;;;;;;13.17;11.77;;;-1.00;85.90;;;-1.54;80.41;100037.34;5071160;28;20836;-82
2023/02/06 08:04:11;;;;;;;13.60;10.67;;;-1.00;85.30;;;-1.97;80.36;99970.88;5075939;28;20457;-77
2023/02/06 08:06:40;;;;;;;14.90;11.80;;;-1.10;86.00;;;-1.61;80.51;100038.63;5064669;28;20567;-78
2023/02/06 08:09:11;;;;;;;14.23;12.73;;;-1.10;86.60;;;-1.36;79.69;100037.22;5078699;28;20465;-76
2023/02/06 08:11:40;;;;;;;15.27;13.40;;;-1.00;85.70;;;-1.41;80.00;100033.97;5077778;28;20733;-74
2023/02/06 08:14:07;;;;;;;17.83;13.77;;;-0.90;85.10;;;-1.38;79.46;100058.50;5071211;28;20824;-76
2023/02/06 08:16:34;;;;;;;18.00;13.57;;;-0.90;85.20;;;-1.66;80.34;100044.22;5082000;28;21217;-74
2023/02/06 08:19:01;;;;;;;20.90;14.60;;;-1.00;84.80;;;-1.93;80.00;99983.00;5075640;28;20458;-71
2023/02/06 08:21:28;;;;;;;19.33;16.07;;;-1.00;86.20;;;-1.58;80.29;100043.78;5080255;28;20537;-72
2023/02/06 08:23:57;;;;;;;19.30;15.50;;;-1.00;85.80;;;-1.53;80.39;100043.47;5078919;28;20841;-75
2023/02/06 08:26:26;;;;;;;17.37;15.03;;;-1.00;86.00;;;-1.51;80.34;100053.06;5073086;28;20489;-75
2023/02/06 08:28:56;;;;;;;17.20;13.73;;;-1.00;85.90;;;-1.55;79.83;100040.94;5083770;28;20680;-75
2023/02/06 08:31:27;;;;;;;14.97;13.20;;;-1.00;85.30;;;-1.56;80.41;100036.56;5081457;28;20452;-80
2023/02/06 08:33:55;;;;;;;16.87;13.43;;;-1.00;86.00;;;-1.50;80.30;100036.22;5087224;28;20501;-76
2023/02/06 08:36:24;;;;;;;16.63;14.23;;;-1.00;86.20;;;-1.29;79.79;100027.94;5075259;28;20471;-77
2023/02/06 08:38:52;;;;;;;15.30;13.27;;;-0.80;85.60;;;-1.38;79.68;100034.63;5086030;28;20450;-79
2023/02/06 08:41:23;;;;;;;15.97;13.57;;;-0.80;84.90;;;-1.45;79.84;100034.13;5084293;28;20446;-79
2023/02/06 08:43:54;;;;;;;16.00;13.23;;;-0.80;85.00;;;-1.41;79.98;100023.38;5095996;28;20423;-74
2023/02/06 08:46:24;;;;;;;19.67;14.23;;;-0.80;85.40;;;-1.34;79.35;100024.72;5099395;28;20485;-78
2023/02/06 08:48:56;;;;;;;19.50;13.50;;;-0.70;85.00;;;-1.20;79.89;100008.84;5106818;28;20479;-77
2023/02/06 08:51:26;;;;;;;16.73;14.17;;;-0.70;85.10;;;-0.89;78.05;100003.50;5113299;28;20480;-75
2023/02/06 08:53:56;;;;;;;15.33;13.00;;;-0.50;83.00;;;-0.68;76.67;100005.78;5080188;28;20526;-79
2023/02/06 08:56:25;;;;;;;16.50;13.67;;;-0.20;81.40;;;-0.57;75.51;100006.81;5069559;28;20536;-74
2023/02/06 08:58:53;;;;;;;17.30;13.73;;;-0.10;80.60;;;-0.57;77.15;99998.84;5055106;28;20467;-77
2023/02/06 09:01:21;;;;;;;20.23;15.17;;;0.00;81.10;;;-0.52;77.12;99995.91;5075906;28;20490;-75
2023/02/06 09:03:49;;;;;;;17.70;14.13;;;0.10;80.70;;;-0.05;75.10;100004.50;5081408;28;20828;-76
2023/02/06 09:06:16;;;;;;;17.00;14.53;;;0.40;79.80;;;0.45;73.75;99995.97;5076023;28;20534;-76
2023/02/06 09:08:44;;;;;;;15.90;14.07;;;0.70;79.40;;;0.19;74.57;100001.19;5079570;28;20467;-70
2023/02/06 09:11:14;;;;;;;17.40;14.27;;;0.70;78.60;;;-0.11;75.73;99998.72;5075461;28;20453;-74
2023/02/06 09:13:42;;;;;;;17.87;14.03;;;0.60;78.70;;;0.42;74.89;99993.53;5071852;28;20511;-74
2023/02/06 09:16:11;;;;;;;18.10;14.13;;;0.70;79.60;;;1.04;72.49;99994.72;5077453;28;20479;-75
2023/02/06 09:18:40;;;;;;;18.93;14.50;;;1.20;78.70;;;1.35;70.50;99997.03;5072730;28;20450;-74
2023/02/06 09:21:10;;;;;;;17.93;14.40;;;1.60;77.30;;;1.48;70.10;99989.06;5072793;28;20783;-74
2023/02/06 09:23:38;;;;;;;18.50;13.80;;;1.70;76.50;;;1.54;68.99;99976.16;5065519;28;20958;-74
2023/02/06 09:26:05;;;;;;;16.03;13.13;;;1.90;75.50;;;1.44;68.94;99968.91;5075268;28;20861;-76
2023/02/06 09:28:33;;;;;;;19.50;13.63;;;1.80;75.00;;;1.05;70.25;99961.78;5076097;28;20445;-74
2023/02/06 09:31:00;;;;;;;22.07;17.20;;;1.70;75.10;;;0.99;70.88;99978.22;5078273;28;20453;-75
2023/02/06 09:33:29;;;;;;;20.97;16.73;;;1.60;75.50;;;0.32;73.34;99963.16;5077480;28;20541;-76
2023/02/06 09:36:05;;;;;;;20.73;16.00;;;1.20;76.20;;;0.81;71.94;99946.56;5067760;28;20480;-78
2023/02/06 09:38:32;;;;;;;22.30;15.33;;;1.20;76.50;;;0.67;71.84;99957.28;5071731;28;20778;-74
2023/02/06 09:41:03;;;;;;;20.00;16.47;;;1.30;75.90;;;0.95;72.60;99944.75;5078086;28;20446;-77
2023/02/06 09:43:33;;;;;;;16.63;14.10;;;1.30;76.90;;;1.29;69.41;99926.44;5066874;28;20459;-78
2023/02/06 09:46:04;;;;;;;18.87;14.83;;;1.70;75.90;;;0.73;69.79;99877.06;5069278;28;21013;-75
2023/02/06 09:48:38;;;;;;;16.83;14.27;;;1.70;75.00;;;1.21;70.43;99923.44;5100949;27;20979;-75
2023/02/06 09:51:17;;;;;;;17.13;13.27;;;1.70;75.70;;;1.48;68.63;99925.13;5079989;28;20841;-75
2023/02/06 09:53:58;;;;;;;18.37;12.90;;;1.90;74.60;;;1.60;68.47;99918.03;5097438;28;20459;-76
2023/02/06 09:56:36;;;;;;;20.90;14.20;;;2.00;74.10;;;1.07;69.53;99858.69;5075437;28;20511;-74
2023/02/06 09:59:13;;;;;;;17.00;13.60;;;2.10;74.40;;;1.86;68.20;99918.78;5077688;28;20463;-77
2023/02/06 10:01:48;;;;;;;15.60;12.27;;;2.30;74.00;;;1.73;67.26;99912.66;5087329;28;20444;-72
2023/02/06 10:04:38;;;;;;;14.00;12.27;;;2.30;73.00;;;1.35;67.80;99910.00;5094203;28;20511;-73
2023/02/06 10:07:19;;;;;;;14.67;13.10;;;2.20;72.30;;;1.88;66.75;99916.88;5094286;28;20526;-79
2023/02/06 10:09:50;;;;;;;18.13;13.90;;;2.30;73.20;;;2.25;65.73;99913.28;5087802;28;20473;-74
2023/02/06 10:12:25;;;;;;;15.10;13.50;;;2.50;72.60;;;2.25;65.60;99892.81;5094519;28;21005;-78
2023/02/06 10:14:58;;;;;;;13.90;12.17;;;2.70;72.30;;;2.23;64.92;99905.41;5080008;28;20485;-74